createdAt,value
2018-02-16T00:00:58.575Z,3.47
2018-02-16T00:03:26.133Z,3.54
2018-02-16T00:05:53.802Z,3.59
2018-02-16T00:08:21.376Z,3.55
2018-02-16T00:10:48.940Z,3.55
2018-02-16T00:13:16.510Z,3.58
2018-02-16T00:15:44.182Z,3.46
2018-02-16T00:18:12.009Z,3.43
2018-02-16T00:20:39.617Z,3.30
2018-02-16T00:23:07.169Z,3.28
2018-02-16T00:25:34.966Z,3.33
2018-02-16T00:28:02.781Z,3.30
2018-02-16T00:30:30.398Z,3.29
2018-02-16T00:32:57.957Z,3.27
2018-02-16T00:35:25.735Z,3.32
2018-02-16T00:37:53.554Z,3.25
2018-02-16T00:40:21.273Z,3.31
2018-02-16T00:42:49.091Z,3.30
2018-02-16T00:45:16.658Z,3.34
2018-02-16T00:47:44.244Z,3.30
2018-02-16T00:50:12.047Z,3.30
2018-02-16T00:52:39.738Z,3.27
2018-02-16T00:55:07.359Z,3.23
2018-02-16T00:57:35.100Z,3.24
2018-02-16T01:00:02.818Z,3.28
2018-02-16T01:02:30.399Z,3.33
2018-02-16T01:04:58.118Z,3.34
2018-02-16T01:07:25.737Z,3.25
2018-02-16T01:09:53.403Z,3.26
2018-02-16T01:12:21.110Z,3.31
2018-02-16T01:14:48.927Z,3.33
2018-02-16T01:17:16.532Z,3.38
2018-02-16T01:19:44.158Z,3.38
2018-02-16T01:22:11.726Z,3.43
2018-02-16T01:24:39.498Z,3.30
2018-02-16T01:27:07.315Z,3.27
2018-02-16T01:29:34.943Z,3.34
2018-02-16T01:32:02.753Z,3.38
2018-02-16T01:34:30.314Z,3.40
2018-02-16T01:36:58.090Z,3.42
2018-02-16T01:39:26.009Z,3.35
2018-02-16T01:41:53.576Z,3.29
2018-02-16T01:44:21.193Z,3.30
2018-02-16T01:46:48.963Z,3.29
2018-02-16T01:49:16.520Z,3.26
2018-02-16T01:51:44.077Z,3.25
2018-02-16T01:54:11.817Z,3.25
2018-02-16T01:56:39.427Z,3.34
2018-02-16T01:59:06.978Z,3.40
2018-02-16T02:01:34.771Z,3.42
2018-02-16T02:04:02.490Z,3.44
2018-02-16T02:06:30.055Z,3.37
2018-02-16T02:08:57.676Z,3.38
2018-02-16T02:11:25.229Z,3.41
2018-02-16T02:13:52.795Z,3.48
2018-02-16T02:16:20.579Z,3.51
2018-02-16T02:18:48.143Z,3.48
2018-02-16T02:21:15.761Z,3.47
2018-02-16T02:23:43.319Z,3.49
2018-02-16T02:26:11.051Z,3.56
2018-02-16T02:28:38.869Z,3.57
2018-02-16T02:31:06.590Z,3.58
2018-02-16T02:33:34.209Z,3.58
2018-02-16T02:36:01.770Z,3.58
2018-02-16T02:38:29.332Z,3.56
2018-02-16T02:40:56.915Z,3.56
2018-02-16T02:43:24.485Z,3.44
2018-02-16T02:45:52.188Z,3.44
2018-02-16T02:48:19.760Z,3.42
2018-02-16T02:50:47.489Z,3.46
2018-02-16T02:53:15.054Z,3.49
2018-02-16T02:55:42.680Z,3.53
2018-02-16T02:58:10.293Z,3.54
2018-02-16T03:00:38.104Z,3.49
2018-02-16T03:03:05.823Z,3.52
2018-02-16T03:05:33.399Z,3.52
2018-02-16T03:08:00.963Z,3.49
2018-02-16T03:10:28.589Z,3.37
2018-02-16T03:12:56.393Z,3.32
2018-02-16T03:15:23.953Z,3.28
2018-02-16T03:17:51.733Z,3.32
2018-02-16T03:20:19.548Z,3.33
2018-02-16T03:22:47.169Z,3.39
2018-02-16T03:25:14.730Z,3.38
2018-02-16T03:27:42.287Z,3.43
2018-02-16T03:30:09.869Z,3.47
2018-02-16T03:32:37.638Z,3.46
2018-02-16T03:35:05.282Z,3.53
2018-02-16T03:37:32.846Z,3.50
2018-02-16T03:40:00.404Z,3.52
2018-02-16T03:42:28.903Z,3.45
2018-02-16T03:44:56.635Z,3.40
2018-02-16T03:47:24.283Z,3.31
2018-02-16T03:49:51.874Z,3.24
2018-02-16T03:52:19.685Z,3.18
2018-02-16T03:54:47.505Z,3.24
2018-02-16T03:57:15.086Z,3.23
2018-02-16T03:59:42.679Z,3.23
2018-02-16T04:02:10.434Z,3.20
2018-02-16T04:04:38.057Z,3.25
2018-02-16T04:07:05.796Z,3.24
2018-02-16T04:09:33.514Z,3.24
2018-02-16T04:12:01.136Z,3.24
2018-02-16T04:14:28.698Z,3.27
2018-02-16T04:16:56.255Z,3.19
2018-02-16T04:19:23.984Z,3.22
2018-02-16T04:21:51.703Z,3.23
2018-02-16T04:24:19.329Z,3.28
2018-02-16T04:26:46.910Z,3.31
2018-02-16T04:29:14.468Z,3.28
2018-02-16T04:31:42.063Z,3.29
2018-02-16T04:34:09.791Z,3.27
2018-02-16T04:36:37.561Z,3.29
2018-02-16T04:39:05.328Z,3.29
2018-02-16T04:41:33.044Z,3.26
2018-02-16T04:44:00.616Z,3.26
2018-02-16T04:46:28.383Z,3.23
2018-02-16T04:48:56.201Z,3.20
2018-02-16T04:51:23.769Z,3.14
2018-02-16T04:53:51.330Z,3.10
2018-02-16T04:56:18.946Z,3.12
2018-02-16T04:58:46.502Z,3.12
2018-02-16T05:01:14.248Z,3.08
2018-02-16T05:03:41.814Z,3.11
2018-02-16T05:06:09.628Z,3.08
2018-02-16T05:08:37.236Z,3.04
2018-02-16T05:11:04.862Z,3.08
2018-02-16T05:13:32.498Z,3.11
2018-02-16T05:16:00.301Z,3.11
2018-02-16T05:18:28.267Z,3.15
2018-02-16T05:20:56.002Z,3.21
2018-02-16T05:23:23.561Z,3.20
2018-02-16T05:25:51.294Z,3.23
2018-02-16T05:28:18.857Z,3.20
2018-02-16T05:30:46.603Z,3.22
2018-02-16T05:33:14.427Z,3.15
2018-02-16T05:35:41.990Z,3.14
2018-02-16T05:38:09.741Z,3.11
2018-02-16T05:40:37.396Z,3.14
2018-02-16T05:43:05.030Z,3.12
2018-02-16T05:45:32.602Z,3.04
2018-02-16T05:48:00.223Z,3.17
2018-02-16T05:50:27.794Z,3.26
2018-02-16T05:52:55.350Z,3.32
2018-02-16T05:55:22.978Z,3.33
2018-02-16T05:57:50.707Z,3.37
2018-02-16T06:00:18.273Z,3.33
2018-02-16T06:02:45.943Z,3.37
2018-02-16T06:05:13.661Z,3.37
2018-02-16T06:07:41.306Z,3.42
2018-02-16T06:10:09.100Z,3.46
2018-02-16T06:12:36.661Z,3.46
2018-02-16T06:15:04.277Z,3.49
2018-02-16T06:17:31.834Z,3.41
2018-02-16T06:19:59.500Z,3.41
2018-02-16T06:22:27.287Z,3.45
2018-02-16T06:24:54.863Z,3.50
2018-02-16T06:27:22.466Z,3.55
2018-02-16T06:29:50.121Z,3.56
2018-02-16T06:32:17.737Z,3.68
2018-02-16T06:34:45.439Z,3.75
2018-02-16T06:37:12.998Z,3.74
2018-02-16T06:39:40.813Z,3.85
2018-02-16T06:42:08.532Z,3.87
2018-02-16T06:44:36.329Z,3.96
2018-02-16T06:47:03.886Z,4.04
2018-02-16T06:49:31.687Z,4.08
2018-02-16T06:51:59.262Z,4.07
2018-02-16T06:54:26.921Z,4.13
2018-02-16T06:56:54.685Z,4.20
2018-02-16T06:59:22.243Z,4.24
2018-02-16T07:01:49.803Z,4.28
2018-02-16T07:04:17.558Z,4.33
2018-02-16T07:06:45.315Z,4.39
2018-02-16T07:09:13.131Z,4.51
2018-02-16T07:11:40.689Z,4.65
2018-02-16T07:14:08.249Z,4.78
2018-02-16T07:16:35.828Z,4.93
2018-02-16T07:19:03.390Z,5.03
2018-02-16T07:21:31.018Z,5.05
2018-02-16T07:23:58.643Z,5.09
2018-02-16T07:26:26.220Z,5.10
2018-02-16T07:28:53.794Z,5.21
2018-02-16T07:31:21.362Z,5.29
2018-02-16T07:33:48.989Z,5.40
2018-02-16T07:36:16.719Z,5.42
2018-02-16T07:38:44.271Z,5.53
2018-02-16T07:41:12.067Z,5.62
2018-02-16T07:43:39.625Z,5.61
2018-02-16T07:46:07.254Z,5.65
2018-02-16T07:48:34.822Z,5.73
2018-02-16T07:51:02.427Z,5.78
2018-02-16T07:53:29.979Z,5.78
2018-02-16T07:55:57.632Z,5.68
2018-02-16T07:58:25.465Z,5.63
2018-02-16T08:00:53.060Z,5.71
2018-02-16T08:03:20.728Z,5.78
2018-02-16T08:05:48.544Z,5.88
2018-02-16T08:08:16.120Z,5.92
2018-02-16T08:10:43.754Z,6.00
2018-02-16T08:13:11.323Z,6.04
2018-02-16T08:15:39.120Z,6.17
2018-02-16T08:18:07.766Z,6.29
2018-02-16T08:20:35.377Z,6.33
2018-02-16T08:23:02.997Z,6.38
2018-02-16T08:25:30.796Z,6.33
2018-02-16T08:27:58.358Z,6.33
2018-02-16T08:30:25.930Z,6.46
2018-02-16T08:32:53.489Z,6.60
2018-02-16T08:35:21.127Z,6.72
2018-02-16T08:37:48.851Z,6.80
2018-02-16T08:40:16.567Z,6.96
2018-02-16T08:42:44.284Z,7.00
2018-02-16T08:45:11.877Z,7.10
2018-02-16T08:47:39.654Z,7.27
2018-02-16T08:50:07.227Z,7.57
2018-02-16T08:52:34.803Z,7.77
2018-02-16T08:55:02.378Z,7.99
2018-02-16T08:57:29.937Z,8.20
2018-02-16T08:59:57.637Z,8.16
2018-02-16T09:02:25.362Z,8.29
2018-02-16T09:04:53.081Z,8.42
2018-02-16T09:07:20.898Z,8.54
2018-02-16T09:09:48.470Z,8.67
2018-02-16T09:12:16.180Z,8.57
2018-02-16T09:14:43.723Z,8.30
2018-02-16T09:17:11.470Z,7.93
2018-02-16T09:19:39.042Z,7.91
2018-02-16T09:22:06.602Z,8.04
2018-02-16T09:24:34.429Z,8.27
2018-02-16T09:27:02.144Z,8.46
2018-02-16T09:29:29.861Z,8.66
2018-02-16T09:31:57.467Z,8.85
2018-02-16T09:34:25.015Z,8.93
2018-02-16T09:36:54.720Z,8.93
2018-02-16T09:39:23.465Z,8.99
2018-02-16T09:41:51.025Z,9.06
2018-02-16T09:44:18.600Z,9.11
2018-02-16T09:46:46.179Z,9.18
2018-02-16T09:49:14.017Z,9.22
2018-02-16T09:51:41.563Z,9.19
2018-02-16T09:54:09.182Z,9.39
2018-02-16T09:56:36.809Z,9.61
2018-02-16T09:59:04.399Z,9.85
2018-02-16T10:01:32.123Z,9.95
2018-02-16T10:03:59.689Z,10.31
2018-02-16T10:06:27.268Z,10.60
2018-02-16T10:08:54.967Z,11.13
2018-02-16T10:11:22.558Z,11.45
2018-02-16T10:13:50.175Z,11.45
2018-02-16T10:16:18.014Z,11.63
2018-02-16T10:18:45.832Z,11.47
2018-02-16T10:21:13.429Z,11.27
2018-02-16T10:23:41.059Z,10.98
2018-02-16T10:26:08.692Z,10.98
2018-02-16T10:28:36.261Z,11.08
2018-02-16T10:31:03.894Z,11.22
2018-02-16T10:33:31.740Z,11.43
2018-02-16T10:35:59.301Z,11.56
2018-02-16T10:38:27.076Z,11.71
2018-02-16T10:40:54.659Z,11.85
2018-02-16T10:43:22.302Z,12.08
2018-02-16T10:45:49.878Z,12.06
2018-02-16T10:48:17.547Z,11.86
2018-02-16T10:50:45.233Z,12.05
2018-02-16T10:53:12.872Z,12.31
2018-02-16T10:55:40.590Z,12.37
2018-02-16T10:58:08.178Z,12.39
2018-02-16T11:00:41.660Z,12.42
2018-02-16T11:03:14.813Z,12.76
2018-02-16T11:05:47.799Z,12.91
2018-02-16T11:08:21.038Z,13.64
2018-02-16T11:10:48.606Z,13.80
2018-02-16T11:13:16.199Z,13.36
2018-02-16T11:15:43.761Z,12.86
2018-02-16T11:18:11.386Z,12.80
2018-02-16T11:20:39.042Z,12.96
2018-02-16T11:23:07.392Z,13.28
2018-02-16T11:25:37.101Z,13.67
2018-02-16T11:28:04.661Z,13.57
2018-02-16T11:30:32.273Z,13.30
2018-02-16T11:32:59.856Z,12.57
2018-02-16T11:35:27.403Z,12.25
2018-02-16T11:37:55.006Z,12.49
2018-02-16T11:40:22.786Z,12.49
2018-02-16T11:42:50.628Z,12.64
2018-02-16T11:45:18.202Z,12.84
2018-02-16T11:47:45.765Z,12.67
2018-02-16T11:50:13.334Z,12.78
2018-02-16T11:52:40.913Z,12.81
2018-02-16T11:55:08.530Z,13.10
2018-02-16T11:57:36.341Z,13.46
2018-02-16T12:00:04.157Z,13.92
2018-02-16T12:02:31.976Z,14.55
2018-02-16T12:04:59.590Z,15.03
2018-02-16T12:07:27.205Z,15.13
2018-02-16T12:09:54.775Z,15.15
2018-02-16T12:12:22.439Z,15.93
2018-02-16T12:14:50.146Z,16.19
2018-02-16T12:17:17.884Z,15.45
2018-02-16T12:19:45.593Z,14.83
2018-02-16T12:22:13.201Z,15.50
2018-02-16T12:24:40.748Z,15.84
2018-02-16T12:27:08.313Z,15.69
2018-02-16T12:29:35.878Z,16.46
2018-02-16T12:32:03.514Z,16.83
2018-02-16T12:34:31.360Z,16.32
2018-02-16T12:36:59.019Z,16.18
2018-02-16T12:39:26.746Z,16.46
2018-02-16T12:41:54.564Z,15.99
2018-02-16T12:44:22.275Z,15.32
2018-02-16T12:46:50.293Z,15.72
2018-02-16T12:49:17.867Z,16.01
2018-02-16T12:51:45.452Z,16.06
2018-02-16T12:54:13.050Z,16.59
2018-02-16T12:56:40.844Z,17.22
2018-02-16T12:59:08.397Z,16.75
2018-02-16T13:01:36.101Z,16.48
2018-02-16T13:04:03.674Z,15.81
2018-02-16T13:06:31.237Z,15.46
2018-02-16T13:08:58.857Z,15.30
2018-02-16T13:11:26.422Z,15.21
2018-02-16T13:13:54.052Z,15.19
2018-02-16T13:16:21.614Z,15.36
2018-02-16T13:18:49.178Z,14.97
2018-02-16T13:21:16.827Z,15.11
2018-02-16T13:23:44.377Z,15.19
2018-02-16T13:26:11.965Z,15.49
2018-02-16T13:28:39.530Z,15.85
2018-02-16T13:31:07.085Z,16.24
2018-02-16T13:33:34.715Z,15.96
2018-02-16T13:36:02.284Z,16.15
2018-02-16T13:38:29.868Z,16.55
2018-02-16T13:40:57.596Z,16.58
2018-02-16T13:43:25.313Z,16.34
2018-02-16T13:45:52.930Z,16.15
2018-02-16T13:48:20.493Z,17.04
2018-02-16T13:50:48.186Z,17.17
2018-02-16T13:53:15.754Z,17.44
2018-02-16T13:55:43.317Z,16.99
2018-02-16T13:58:11.002Z,17.25
2018-02-16T14:00:38.561Z,17.59
2018-02-16T14:03:06.243Z,17.53
2018-02-16T14:05:33.864Z,17.74
2018-02-16T14:08:02.092Z,18.24
2018-02-16T14:10:29.827Z,18.33
2018-02-16T14:12:57.390Z,17.78
2018-02-16T14:15:25.010Z,17.02
2018-02-16T14:17:52.578Z,17.23
2018-02-16T14:20:20.155Z,17.41
2018-02-16T14:22:48.009Z,17.51
2018-02-16T14:25:15.578Z,17.69
2018-02-16T14:27:43.160Z,17.61
2018-02-16T14:30:10.850Z,17.60
2018-02-16T14:32:38.448Z,17.71
2018-02-16T14:35:06.070Z,17.81
2018-02-16T14:37:33.778Z,17.73
2018-02-16T14:40:01.499Z,17.82
2018-02-16T14:42:29.076Z,17.81
2018-02-16T14:44:56.638Z,17.24
2018-02-16T14:47:24.267Z,17.00
2018-02-16T14:49:51.862Z,16.93
2018-02-16T14:52:19.582Z,17.10
2018-02-16T14:54:47.149Z,17.22
2018-02-16T14:57:14.958Z,17.21
2018-02-16T14:59:42.573Z,17.29
2018-02-16T15:02:10.137Z,17.07
2018-02-16T15:04:37.836Z,16.97
2018-02-16T15:07:05.506Z,16.52
2018-02-16T15:09:33.158Z,15.44
2018-02-16T15:12:00.881Z,14.50
2018-02-16T15:14:28.462Z,13.44
2018-02-16T15:16:56.037Z,12.52
2018-02-16T15:19:23.644Z,11.75
2018-02-16T15:21:51.214Z,11.03
2018-02-16T15:24:18.838Z,10.46
2018-02-16T15:26:46.569Z,9.92
2018-02-16T15:29:14.288Z,9.37
2018-02-16T15:31:41.878Z,9.09
2018-02-16T15:34:09.825Z,8.92
2018-02-16T15:36:37.517Z,8.67
2018-02-16T15:39:05.321Z,8.46
2018-02-16T15:41:32.918Z,8.24
2018-02-16T15:44:00.490Z,8.03
2018-02-16T15:46:28.054Z,7.78
2018-02-16T15:48:55.745Z,7.73
2018-02-16T15:51:24.351Z,7.69
2018-02-16T15:53:51.988Z,7.54
2018-02-16T15:56:19.701Z,7.50
2018-02-16T15:58:47.312Z,7.44
2018-02-16T16:01:14.918Z,7.38
2018-02-16T16:03:42.645Z,7.30
2018-02-16T16:06:10.214Z,7.30
2018-02-16T16:08:37.794Z,7.29
2018-02-16T16:11:05.600Z,7.24
2018-02-16T16:13:33.220Z,7.19
2018-02-16T16:16:00.934Z,7.20
2018-02-16T16:18:28.494Z,7.16
2018-02-16T16:20:56.066Z,7.04
2018-02-16T16:23:23.790Z,7.01
2018-02-16T16:25:51.498Z,6.88
2018-02-16T16:28:19.225Z,6.90
2018-02-16T16:30:46.793Z,6.84
2018-02-16T16:33:14.452Z,6.74
2018-02-16T16:35:42.022Z,6.63
2018-02-16T16:38:09.815Z,6.59
2018-02-16T16:40:37.382Z,6.51
2018-02-16T16:43:04.942Z,6.57
2018-02-16T16:45:32.530Z,6.55
2018-02-16T16:48:00.268Z,6.49
2018-02-16T16:50:28.087Z,6.51
2018-02-16T16:52:55.647Z,6.51
2018-02-16T16:55:23.221Z,6.48
2018-02-16T16:57:51.144Z,6.42
2018-02-16T17:00:18.715Z,6.34
2018-02-16T17:02:46.338Z,6.26
2018-02-16T17:05:14.099Z,6.21
2018-02-16T17:07:41.914Z,6.17
2018-02-16T17:10:09.494Z,6.13
2018-02-16T17:12:37.051Z,6.08
2018-02-16T17:15:04.868Z,6.03
2018-02-16T17:17:32.425Z,5.97
2018-02-16T17:19:59.981Z,5.93
2018-02-16T17:22:27.555Z,5.95
2018-02-16T17:24:55.117Z,5.89
2018-02-16T17:27:22.737Z,5.88
2018-02-16T17:29:50.476Z,5.86
2018-02-16T17:32:18.034Z,5.85
2018-02-16T17:34:45.600Z,5.85
2018-02-16T17:37:13.163Z,5.84
2018-02-16T17:39:41.047Z,5.80
2018-02-16T17:42:08.611Z,5.74
2018-02-16T17:44:36.179Z,5.63
2018-02-16T17:47:04.007Z,5.44
2018-02-16T17:49:31.721Z,5.34
2018-02-16T17:51:59.329Z,5.31
2018-02-16T17:54:27.055Z,5.21
2018-02-16T17:56:54.618Z,5.15
2018-02-16T17:59:22.206Z,5.15
2018-02-16T18:01:49.801Z,5.13
2018-02-16T18:04:17.434Z,5.17
2018-02-16T18:06:44.994Z,5.18
2018-02-16T18:09:12.572Z,5.15
2018-02-16T18:11:40.205Z,5.12
2018-02-16T18:14:07.999Z,5.01
2018-02-16T18:16:35.618Z,4.97
2018-02-16T18:19:03.178Z,4.93
2018-02-16T18:21:30.868Z,4.84
2018-02-16T18:23:58.506Z,4.74
2018-02-16T18:26:26.253Z,4.72
2018-02-16T18:28:53.873Z,4.72
2018-02-16T18:31:21.437Z,4.73
2018-02-16T18:33:49.243Z,4.69
2018-02-16T18:36:16.827Z,4.65
2018-02-16T18:38:44.579Z,4.60
2018-02-16T18:41:12.202Z,4.58
2018-02-16T18:43:40.016Z,4.60
2018-02-16T18:46:07.578Z,4.47
2018-02-16T18:48:35.321Z,4.41
2018-02-16T18:51:02.876Z,4.42
2018-02-16T18:53:30.505Z,4.37
2018-02-16T18:55:58.074Z,4.26
2018-02-16T18:58:25.635Z,4.16
2018-02-16T19:00:53.322Z,4.11
2018-02-16T19:03:20.871Z,4.18
2018-02-16T19:05:48.504Z,4.24
2018-02-16T19:08:16.069Z,4.22
2018-02-16T19:10:43.676Z,4.26
2018-02-16T19:13:11.255Z,4.22
2018-02-16T19:15:38.933Z,4.06
2018-02-16T19:18:06.554Z,4.12
2018-02-16T19:20:34.121Z,4.16
2018-02-16T19:23:01.677Z,4.07
2018-02-16T19:25:29.242Z,4.05
2018-02-16T19:27:57.038Z,3.98
2018-02-16T19:30:24.670Z,3.88
2018-02-16T19:32:52.248Z,3.79
2018-02-16T19:35:19.809Z,3.75
2018-02-16T19:37:47.610Z,3.67
2018-02-16T19:40:15.435Z,3.70
2018-02-16T19:42:43.548Z,3.60
2018-02-16T19:45:11.113Z,3.51
2018-02-16T19:47:38.685Z,3.42
2018-02-16T19:50:06.287Z,3.35
2018-02-16T19:52:33.853Z,3.22
2018-02-16T19:55:01.465Z,3.09
2018-02-16T19:57:29.255Z,3.09
2018-02-16T19:59:57.075Z,3.04
2018-02-16T20:02:24.883Z,2.95
2018-02-16T20:04:52.611Z,2.97
2018-02-16T20:07:20.222Z,2.94
2018-02-16T20:09:47.906Z,2.99
2018-02-16T20:12:15.558Z,2.99
2018-02-16T20:14:43.282Z,2.98
2018-02-16T20:17:11.102Z,3.00
2018-02-16T20:19:38.919Z,3.01
2018-02-16T20:22:06.473Z,3.04
2018-02-16T20:24:34.120Z,3.03
2018-02-16T20:27:01.695Z,3.00
2018-02-16T20:29:29.270Z,2.98
2018-02-16T20:31:56.899Z,2.98
2018-02-16T20:34:24.477Z,3.04
2018-02-16T20:36:52.068Z,2.94
2018-02-16T20:39:19.650Z,2.99
2018-02-16T20:41:47.233Z,3.01
2018-02-16T20:44:14.857Z,2.99
2018-02-16T20:46:42.414Z,2.93
2018-02-16T20:49:09.970Z,2.82
2018-02-16T20:51:37.752Z,2.73
2018-02-16T20:54:05.309Z,2.66
2018-02-16T20:56:33.089Z,2.66
2018-02-16T20:59:00.780Z,2.66
2018-02-16T21:01:28.531Z,2.62
2018-02-16T21:03:56.126Z,2.61
2018-02-16T21:06:23.729Z,2.54
2018-02-16T21:08:51.381Z,2.45
2018-02-16T21:11:19.122Z,2.41
2018-02-16T21:13:46.915Z,2.34
2018-02-16T21:16:14.734Z,2.37
2018-02-16T21:18:42.306Z,2.34
2018-02-16T21:21:09.925Z,2.28
2018-02-16T21:23:37.505Z,2.26
2018-02-16T21:26:05.057Z,2.24
2018-02-16T21:28:32.658Z,2.26
2018-02-16T21:31:00.217Z,2.25
2018-02-16T21:33:27.823Z,2.30
2018-02-16T21:35:55.577Z,2.36
2018-02-16T21:38:23.177Z,2.27
2018-02-16T21:40:50.741Z,2.17
2018-02-16T21:43:18.315Z,2.19
2018-02-16T21:45:45.942Z,2.22
2018-02-16T21:48:13.641Z,2.26
2018-02-16T21:50:41.193Z,2.24
2018-02-16T21:53:08.766Z,2.23
2018-02-16T21:55:36.325Z,2.17
2018-02-16T21:58:03.950Z,2.13
2018-02-16T22:00:31.757Z,2.06
2018-02-16T22:02:59.575Z,1.91
2018-02-16T22:05:27.141Z,1.84
2018-02-16T22:07:54.911Z,1.79
2018-02-16T22:10:22.576Z,1.83
2018-02-16T22:12:50.134Z,1.82
2018-02-16T22:15:17.678Z,1.83
2018-02-16T22:17:45.482Z,1.92
2018-02-16T22:20:13.040Z,1.96
2018-02-16T22:22:40.664Z,1.93
2018-02-16T22:25:08.231Z,1.92
2018-02-16T22:27:35.874Z,1.90
2018-02-16T22:30:03.654Z,1.86
2018-02-16T22:32:31.390Z,1.85
2018-02-16T22:34:59.017Z,1.84
2018-02-16T22:37:26.578Z,1.81
2018-02-16T22:39:54.119Z,1.73
2018-02-16T22:42:21.836Z,1.66
2018-02-16T22:44:49.397Z,1.58
2018-02-16T22:47:16.961Z,1.54
2018-02-16T22:49:44.558Z,1.56
2018-02-16T22:52:12.334Z,1.56
2018-02-16T22:54:40.073Z,1.53
2018-02-16T22:57:07.618Z,1.48
2018-02-16T22:59:35.166Z,1.51
2018-02-16T23:02:02.726Z,1.50
2018-02-16T23:04:30.345Z,1.47
2018-02-16T23:06:57.918Z,1.41
2018-02-16T23:09:25.482Z,1.35
2018-02-16T23:11:53.054Z,1.31
2018-02-16T23:14:20.625Z,1.34
2018-02-16T23:16:48.274Z,1.36
2018-02-16T23:19:16.030Z,1.30
2018-02-16T23:21:43.617Z,1.27
2018-02-16T23:24:11.221Z,1.27
2018-02-16T23:26:38.781Z,1.30
2018-02-16T23:29:06.602Z,1.33
2018-02-16T23:31:34.421Z,1.32
2018-02-16T23:34:01.986Z,1.33
2018-02-16T23:36:29.757Z,1.31
2018-02-16T23:38:57.317Z,1.22
2018-02-16T23:41:24.882Z,1.15
2018-02-16T23:43:52.392Z,1.16
2018-02-16T23:46:20.019Z,1.17
2018-02-16T23:48:47.587Z,1.15
2018-02-16T23:51:15.150Z,1.16
2018-02-16T23:53:42.733Z,1.14
2018-02-16T23:56:10.551Z,1.16
2018-02-16T23:58:38.107Z,1.12
